Terminal Aerodrome Forecast
Issued by NWS

Home | Current Version | Previous Version | Text Only | Print | Product List | Glossary On
Versions: 1 2 3 4 5 6 7 8 9 10 11 12 13 14 15 16
000
FTUS42 KTAE 100700 AAA
TAFVLD
TAF AMD
KVLD 100711Z 1007/1106 00000KT 5SM HZ BKN250
      TEMPO 1007/1011 3SM HZ BR
     FM101600 22007KT P6SM SHRA VCTS BKN040CB
      TEMPO 1019/1023 3SM +TSRA SCT015 OVC030CB
     FM110300 00000KT 5SM HZ BKN100 OVC250=

USA.gov is the U.S. government's official web portal to all federal, state and local government web resources and services.